Barry, United Kingdom
Current Conditions -  °F | °C
As of 2:50 PM on Friday 24 Oct 2014 (Local Time) from EGFF Reporting Station
Rain Showers Rain Showers  
Wind Chill: 57°   Ceiling: 1800
Heat Index: 57°   Visibility: 6mi
Dew Point: 57°   Wind: 12mph
Humidity: 100%   Direction: 280°W
Pressure: 29.88"   Gusts: NA
Location:  51.41°N, 3.27°W
Report Text: EGFF 241350Z 28010KT 9999 VCSH FEW003 SCT010 BKN018 14/14 Q1012 RERA
Loading
Personal Weather Stations






























Interactive Weather Map
Tropical Storm Tracking
New forecast layout! Learn more

10-Day Weather Forecast

Advertisements
Track Severe Weather on mobile